createdAt,value
2018-11-01T00:00:02.481Z,0
2018-11-01T00:05:03.045Z,0
2018-11-01T00:10:02.855Z,0
2018-11-01T00:15:02.508Z,0
2018-11-01T00:20:03.160Z,0
2018-11-01T00:25:02.732Z,0
2018-11-01T00:30:03.315Z,0
2018-11-01T00:35:02.904Z,0
2018-11-01T00:40:02.570Z,0
2018-11-01T00:45:03.198Z,0
2018-11-01T00:50:02.683Z,0
2018-11-01T00:55:03.251Z,0
2018-11-01T01:00:02.900Z,0
2018-11-01T01:05:03.001Z,0
2018-11-01T01:10:02.671Z,0
2018-11-01T01:15:03.276Z,0
2018-11-01T01:20:02.798Z,0
2018-11-01T01:25:02.451Z,0
2018-11-01T01:30:03.147Z,0
2018-11-01T01:35:02.729Z,0
2018-11-01T01:40:02.671Z,0
2018-11-01T01:45:03.272Z,0
2018-11-01T01:50:02.808Z,0
2018-11-01T01:55:02.477Z,0
2018-11-01T02:00:03.100Z,0
2018-11-01T02:05:02.750Z,0
2018-11-01T02:10:02.600Z,0
2018-11-01T02:15:03.133Z,0
2018-11-01T02:20:02.692Z,0
2018-11-01T02:25:03.333Z,0
2018-11-01T02:30:02.887Z,0
2018-11-01T02:35:02.584Z,0
2018-11-01T02:40:03.283Z,0
2018-11-01T02:45:02.864Z,0
2018-11-01T02:50:03.467Z,0
2018-11-01T02:55:03.062Z,0
2018-11-01T03:00:02.688Z,0
2018-11-01T03:05:03.229Z,0
2018-11-01T03:10:02.833Z,0
2018-11-01T03:15:02.455Z,0
2018-11-01T03:20:03.168Z,0
2018-11-01T03:25:02.820Z,0
2018-11-01T03:30:03.347Z,0
2018-11-01T03:35:02.900Z,0
2018-11-01T03:40:02.490Z,0
2018-11-01T03:45:03.029Z,0
2018-11-01T03:50:02.626Z,0
2018-11-01T03:55:03.241Z,0
2018-11-01T04:00:02.758Z,0
2018-11-01T04:05:03.399Z,0
2018-11-01T04:10:02.980Z,0
2018-11-01T04:15:02.755Z,0
2018-11-01T04:20:02.723Z,0
2018-11-01T04:25:03.311Z,0
2018-11-01T04:30:02.865Z,0
2018-11-01T04:35:02.444Z,0
2018-11-01T04:40:03.073Z,0
2018-11-01T04:45:02.701Z,0
2018-11-01T04:50:02.380Z,0
2018-11-01T04:55:03.057Z,0
2018-11-01T05:00:02.625Z,0
2018-11-01T05:05:02.594Z,0
2018-11-01T05:10:03.095Z,0
2018-11-01T05:15:02.835Z,0
2018-11-01T05:20:02.879Z,0
2018-11-01T05:25:02.707Z,0
2018-11-01T05:30:02.401Z,0
2018-11-01T05:35:03.011Z,0
2018-11-01T05:40:02.599Z,0
2018-11-01T05:45:03.210Z,0
2018-11-01T05:50:02.718Z,0
2018-11-01T05:55:03.333Z,1
2018-11-01T06:00:03.073Z,3
2018-11-01T06:05:03.133Z,8
2018-11-01T06:10:02.825Z,21
2018-11-01T06:15:02.539Z,56
2018-11-01T06:20:03.231Z,53
2018-11-01T06:25:02.902Z,61
2018-11-01T06:30:02.617Z,150
2018-11-01T06:35:03.359Z,215
2018-11-01T06:40:03.056Z,283
2018-11-01T06:45:02.623Z,275
2018-11-01T06:50:03.263Z,336
2018-11-01T06:55:02.786Z,426
2018-11-01T07:00:03.305Z,638
2018-11-01T07:05:02.923Z,773
2018-11-01T07:10:02.585Z,917
2018-11-01T07:15:03.173Z,1000
2018-11-01T07:20:02.814Z,1000
2018-11-01T07:25:02.402Z,1000
2018-11-01T07:30:03.007Z,1000
2018-11-01T07:35:02.629Z,1000
2018-11-01T07:40:03.578Z,1000
2018-11-01T07:45:02.924Z,1000
2018-11-01T07:50:02.582Z,2000
2018-11-01T07:55:03.148Z,2000
2018-11-01T08:00:03.090Z,2000
2018-11-01T08:05:02.723Z,3000
2018-11-01T08:10:02.447Z,2000
2018-11-01T08:15:03.128Z,3000
2018-11-01T08:20:03.413Z,4000
2018-11-01T08:25:02.604Z,6000
2018-11-01T08:30:03.297Z,7000
2018-11-01T08:35:02.840Z,9000
2018-11-01T08:40:02.520Z,10000
2018-11-01T08:45:03.197Z,10000
2018-11-01T08:50:02.984Z,10000
2018-11-01T08:55:03.088Z,11000
2018-11-01T09:00:02.698Z,14000
2018-11-01T09:05:02.396Z,14000
2018-11-01T09:10:03.067Z,13000
2018-11-01T09:15:02.685Z,15000
2018-11-01T09:20:02.561Z,9000
2018-11-01T09:25:03.272Z,8000
2018-11-01T09:30:02.856Z,10000
2018-11-01T09:35:02.626Z,9000
2018-11-01T09:40:03.380Z,7000
2018-11-01T09:45:03.071Z,6000
2018-11-01T09:50:02.814Z,6000
2018-11-01T09:55:02.379Z,6000
2018-11-01T10:00:03.039Z,6000
2018-11-01T10:05:02.610Z,5000
2018-11-01T10:10:03.307Z,5000
2018-11-01T10:15:03.228Z,5000
2018-11-01T10:20:02.523Z,5000
2018-11-01T10:25:03.203Z,5000
2018-11-01T10:30:03.026Z,5000
2018-11-01T10:35:02.684Z,4000
2018-11-01T10:40:02.407Z,4000
2018-11-01T10:45:03.035Z,3000
2018-11-01T10:50:02.760Z,3000
2018-11-01T10:55:02.373Z,3000
2018-11-01T11:00:03.177Z,2000
2018-11-01T11:05:03.149Z,2000
2018-11-01T11:10:02.842Z,2000
2018-11-01T11:15:02.452Z,3000
2018-11-01T11:20:03.210Z,3000
2018-11-01T11:25:02.476Z,3000
2018-11-01T11:30:03.461Z,3000
2018-11-01T11:35:02.531Z,3000
2018-11-01T11:40:03.182Z,3000
2018-11-01T11:45:02.794Z,3000
2018-11-01T11:50:02.528Z,3000
2018-11-01T11:55:03.271Z,3000
2018-11-01T12:00:02.872Z,3000
2018-11-01T12:05:02.444Z,2000
2018-11-01T12:10:03.076Z,2000
2018-11-01T12:15:02.667Z,2000
2018-11-01T12:20:03.297Z,1000
2018-11-01T12:25:02.914Z,1000
2018-11-01T12:30:02.490Z,1000
2018-11-01T12:35:03.307Z,1000
2018-11-01T12:40:03.215Z,1000
2018-11-01T12:45:02.759Z,1000
2018-11-01T12:50:02.914Z,1000
2018-11-01T12:55:02.520Z,1000
2018-11-01T13:00:03.135Z,1000
2018-11-01T13:05:02.765Z,1000
2018-11-01T13:10:02.466Z,1000
2018-11-01T13:15:03.103Z,1000
2018-11-01T13:20:02.708Z,1000
2018-11-01T13:25:03.311Z,1000
2018-11-01T13:30:02.984Z,1000
2018-11-01T13:35:03.166Z,1000
2018-11-01T13:40:03.352Z,1000
2018-11-01T13:45:02.587Z,1000
2018-11-01T13:50:03.252Z,1000
2018-11-01T13:55:02.914Z,1000
2018-11-01T14:00:02.543Z,1000
2018-11-01T14:05:03.115Z,1000
2018-11-01T14:10:02.771Z,1000
2018-11-01T14:15:04.516Z,1000
2018-11-01T14:20:02.873Z,865
2018-11-01T14:25:02.467Z,808
2018-11-01T14:30:03.006Z,711
2018-11-01T14:35:02.669Z,639
2018-11-01T14:40:03.235Z,500
2018-11-01T14:45:02.816Z,387
2018-11-01T14:50:02.424Z,375
2018-11-01T14:55:06.188Z,343
2018-11-01T15:00:03.364Z,303
2018-11-01T15:05:02.949Z,264
2018-11-01T15:10:02.643Z,171
2018-11-01T15:15:03.367Z,148
2018-11-01T15:20:03.042Z,133
2018-11-01T15:25:02.763Z,124
2018-11-01T15:30:03.577Z,96
2018-11-01T15:35:02.567Z,83
2018-11-01T15:40:03.544Z,75
2018-11-01T15:45:02.925Z,68
2018-11-01T15:50:02.462Z,60
2018-11-01T15:55:03.236Z,58
2018-11-01T16:00:02.931Z,50
2018-11-01T16:05:02.556Z,36
2018-11-01T16:10:02.627Z,28
2018-11-01T16:15:02.798Z,21
2018-11-01T16:20:03.013Z,14
2018-11-01T16:25:03.026Z,7
2018-11-01T16:30:02.658Z,3
2018-11-01T16:35:03.339Z,2
2018-11-01T16:40:03.068Z,1
2018-11-01T16:45:02.953Z,0
2018-11-01T16:50:03.038Z,0
2018-11-01T16:55:02.907Z,0
2018-11-01T17:00:02.473Z,0
2018-11-01T17:05:03.316Z,0
2018-11-01T17:10:03.260Z,0
2018-11-01T17:15:03.415Z,0
2018-11-01T17:20:02.391Z,0
2018-11-01T17:25:03.403Z,0
2018-11-01T17:30:02.726Z,0
2018-11-01T17:35:02.450Z,0
2018-11-01T17:40:03.143Z,0
2018-11-01T17:45:02.815Z,0
2018-11-01T17:50:02.478Z,0
2018-11-01T17:55:03.167Z,0
2018-11-01T18:00:02.842Z,0
2018-11-01T18:05:02.588Z,0
2018-11-01T18:10:03.426Z,0
2018-11-01T18:15:03.110Z,0
2018-11-01T18:20:02.691Z,0
2018-11-01T18:25:03.374Z,0
2018-11-01T18:30:03.040Z,0
2018-11-01T18:35:02.951Z,0
2018-11-01T18:40:02.706Z,0
2018-11-01T18:45:02.487Z,0
2018-11-01T18:50:03.492Z,0
2018-11-01T18:55:03.037Z,0
2018-11-01T19:00:02.809Z,0
2018-11-01T19:05:02.983Z,0
2018-11-01T19:10:02.617Z,0
2018-11-01T19:15:03.258Z,0
2018-11-01T19:20:02.909Z,0
2018-11-01T19:25:02.655Z,0
2018-11-01T19:30:03.331Z,0
2018-11-01T19:35:03.050Z,0
2018-11-01T19:40:03.251Z,0
2018-11-01T19:45:02.608Z,0
2018-11-01T19:50:03.299Z,0
2018-11-01T19:55:02.973Z,0
2018-11-01T20:00:02.667Z,0
2018-11-01T20:05:03.402Z,0
2018-11-01T20:10:03.203Z,0
2018-11-01T20:15:03.353Z,0
2018-11-01T20:20:03.142Z,0
2018-11-01T20:25:02.822Z,0
2018-11-01T20:30:02.819Z,0
2018-11-01T20:35:02.541Z,0
2018-11-01T20:40:03.201Z,0
2018-11-01T20:45:03.132Z,0
2018-11-01T20:50:03.097Z,0
2018-11-01T20:55:03.239Z,0
2018-11-01T21:00:02.988Z,0
2018-11-01T21:05:03.093Z,0
2018-11-01T21:10:02.450Z,0
2018-11-01T21:15:03.101Z,0
2018-11-01T21:20:02.655Z,0
2018-11-01T21:25:03.337Z,0
2018-11-01T21:30:02.823Z,0
2018-11-01T21:35:02.714Z,0
2018-11-01T21:40:02.818Z,0
2018-11-01T21:45:02.517Z,0
2018-11-01T21:50:03.165Z,0
2018-11-01T21:55:02.780Z,0
2018-11-01T22:00:03.380Z,0
2018-11-01T22:05:03.011Z,0
2018-11-01T22:10:02.625Z,0
2018-11-01T22:15:03.278Z,0
2018-11-01T22:20:02.843Z,0
2018-11-01T22:25:02.531Z,0
2018-11-01T22:30:03.212Z,0
2018-11-01T22:35:02.742Z,0
2018-11-01T22:40:02.417Z,0
2018-11-01T22:45:03.145Z,0
2018-11-01T22:50:02.686Z,0
2018-11-01T22:55:03.297Z,0
2018-11-01T23:00:03.310Z,0
2018-11-01T23:05:02.991Z,0
2018-11-01T23:10:02.723Z,0
2018-11-01T23:15:02.378Z,0
2018-11-01T23:20:03.081Z,0
2018-11-01T23:25:02.844Z,0
2018-11-01T23:30:02.775Z,0
2018-11-01T23:35:03.006Z,0
2018-11-01T23:40:03.160Z,0
2018-11-01T23:45:03.200Z,0
2018-11-01T23:50:02.807Z,0
2018-11-01T23:55:02.431Z,0
